Teruel, Spain

3:43 AM CET en Diciembre 12, 2017 (GMT +0100)
Froggit WH3000 | | Change Station

Alt 4101 ft 40.16 °N, 1.41 °W | Updated 2 seconds ago

Parcialmente nublado
Parcialmente nublado
45.0 ° F
Sensación térmica 41 ° F
N
6.7
Viento Variable Viento desde SO
Gusts 10.3 mph

Hoy
Alta -- | Baja -- ° F
--% Posibilidad de precipitaciones
Ayer
Alta -- | Baja -- ° F
Precip. -- pul
Presión 29.74 pul
Visibilidad -9999.0 Millas
Nubes
Vientos helados 41 ° F
Punto de rocío 38 ° F
Humedad 75%
Precipitaciones 0.00 pul
Espesor de la nieve No disponible.
8:18 AM 5:40 PM
Creciente menguante, 32% visible
METAR LETL 120230Z AUTO 01005KT CAVOK 00/M01 Q1007
Presión 29.74 pul
Visibilidad -9999.0 Millas
Nubes
Vientos helados 41 ° F
Punto de rocío 38 ° F
Humedad 75%
Precipitaciones 0.00 pul
Espesor de la nieve No disponible.
8:18 AM 5:40 PM
Creciente menguante, 32% visible
METAR LETL 120230Z AUTO 01005KT CAVOK 00/M01 Q1007

Get Severe Weather Alerts

Thanks for signing up!

Be on the lookout for a verification email in your inbox.

You'll start receiving the daily forecast at 6 AM.

×

10-Day Weather Forecast

×

Almanac

Astronomía

Dec. 12, 2017 Salida Puesta
Hora real
Crepúsculo civil
Crepúsculo náutico
Crepúsculo astronómico
Luna
Horas de luz
Horas de luz
Tomorrow will be .
, % of the Moon is Illuminated

Extremos de hoy

Máximos del país Bajas del país

Community

WunderPhotos

Category 6

Welcome to Category 6. This is the collective home for Weather Underground's featured writeups by Dr. Jeff Masters (right), Bob Henson (left), Chris Burt, and other regular contributors.

Nearby

Calidad del aire

  Calidad del aire Índice AQ Contaminante
Not available.

Grosos de nieve

Estación Profundido Altura

Actividad de terremotos

Ciudad Distance Mag. Tiempo y dato
Magnitud mínima muestra es 2,5.

Temperaturas de aguas costeras

Lugar Temperatura

Stations

Estaciones meteorológicas cercanas

Ubicación de la estación Temp. Vientos helados Punto de rocío Humedad Viento Precip. Alt Actualizado Tipo